sensor_id;sensor_type;location;lat;lon;timestamp;temperature;humidity
21787;DHT22;11055;50.870;4.316;2023-10-31T00:01:49;11.50;99.90
21787;DHT22;11055;50.870;4.316;2023-10-31T00:04:15;11.40;99.90
21787;DHT22;11055;50.870;4.316;2023-10-31T00:06:41;11.30;99.90
21787;DHT22;11055;50.870;4.316;2023-10-31T00:09:07;11.40;99.90
21787;DHT22;11055;50.870;4.316;2023-10-31T00:11:33;11.50;99.90
21787;DHT22;11055;50.870;4.316;2023-10-31T00:13:58;11.60;99.90
21787;DHT22;11055;50.870;4.316;2023-10-31T00:16:24;11.60;99.90
21787;DHT22;11055;50.870;4.316;2023-10-31T00:18:50;11.60;99.90
21787;DHT22;11055;50.870;4.316;2023-10-31T00:21:15;11.50;99.90
21787;DHT22;11055;50.870;4.316;2023-10-31T00:23:45;11.50;99.90
21787;DHT22;11055;50.870;4.316;2023-10-31T00:26:11;11.60;99.90
21787;DHT22;11055;50.870;4.316;2023-10-31T00:28:37;11.60;99.90
21787;DHT22;11055;50.870;4.316;2023-10-31T00:31:03;11.50;99.90
21787;DHT22;11055;50.870;4.316;2023-10-31T00:33:29;11.50;99.90
21787;DHT22;11055;50.870;4.316;2023-10-31T00:35:55;11.40;99.90
21787;DHT22;11055;50.870;4.316;2023-10-31T00:38:21;11.40;99.90
21787;DHT22;11055;50.870;4.316;2023-10-31T00:40:47;11.50;99.90
21787;DHT22;11055;50.870;4.316;2023-10-31T00:43:13;11.60;99.90
21787;DHT22;11055;50.870;4.316;2023-10-31T00:45:38;11.60;99.90
21787;DHT22;11055;50.870;4.316;2023-10-31T00:48:04;11.60;99.90
21787;DHT22;11055;50.870;4.316;2023-10-31T00:50:30;11.60;99.90
21787;DHT22;11055;50.870;4.316;2023-10-31T00:52:55;11.60;99.90
21787;DHT22;11055;50.870;4.316;2023-10-31T00:55:21;11.60;99.90
21787;DHT22;11055;50.870;4.316;2023-10-31T00:57:46;11.50;99.90
21787;DHT22;11055;50.870;4.316;2023-10-31T01:00:12;11.50;99.90
21787;DHT22;11055;50.870;4.316;2023-10-31T01:02:38;11.50;99.90
21787;DHT22;11055;50.870;4.316;2023-10-31T01:05:04;11.60;99.90
21787;DHT22;11055;50.870;4.316;2023-10-31T01:07:30;11.50;99.90
21787;DHT22;11055;50.870;4.316;2023-10-31T01:09:55;11.50;99.90
21787;DHT22;11055;50.870;4.316;2023-10-31T01:12:21;11.30;99.90
21787;DHT22;11055;50.870;4.316;2023-10-31T01:14:47;11.30;99.90
21787;DHT22;11055;50.870;4.316;2023-10-31T01:17:12;11.40;99.90
21787;DHT22;11055;50.870;4.316;2023-10-31T01:19:38;11.30;99.90
21787;DHT22;11055;50.870;4.316;2023-10-31T01:22:04;11.20;99.90
21787;DHT22;11055;50.870;4.316;2023-10-31T01:24:29;11.30;99.90
21787;DHT22;11055;50.870;4.316;2023-10-31T01:26:55;11.30;99.90
21787;DHT22;11055;50.870;4.316;2023-10-31T01:29:21;11.30;99.90
21787;DHT22;11055;50.870;4.316;2023-10-31T01:31:46;11.30;99.90
21787;DHT22;11055;50.870;4.316;2023-10-31T01:34:12;11.30;99.90
21787;DHT22;11055;50.870;4.316;2023-10-31T01:36:38;11.40;99.90
21787;DHT22;11055;50.870;4.316;2023-10-31T01:39:03;11.30;99.90
21787;DHT22;11055;50.870;4.316;2023-10-31T01:41:29;11.20;99.90
21787;DHT22;11055;50.870;4.316;2023-10-31T01:43:54;11.10;99.90
21787;DHT22;11055;50.870;4.316;2023-10-31T01:46:20;11.10;99.90
21787;DHT22;11055;50.870;4.316;2023-10-31T01:48:46;11.10;99.90
21787;DHT22;11055;50.870;4.316;2023-10-31T01:51:11;11.20;99.90
21787;DHT22;11055;50.870;4.316;2023-10-31T01:53:37;11.20;99.90
21787;DHT22;11055;50.870;4.316;2023-10-31T01:56:04;11.00;99.90
21787;DHT22;11055;50.870;4.316;2023-10-31T01:58:34;11.10;99.90
21787;DHT22;11055;50.870;4.316;2023-10-31T02:01:01;11.00;99.90
21787;DHT22;11055;50.870;4.316;2023-10-31T02:03:29;11.00;99.90
21787;DHT22;11055;50.870;4.316;2023-10-31T02:05:56;10.90;99.90
21787;DHT22;11055;50.870;4.316;2023-10-31T02:08:23;10.90;99.90
21787;DHT22;11055;50.870;4.316;2023-10-31T02:10:49;10.90;99.90
21787;DHT22;11055;50.870;4.316;2023-10-31T02:13:16;10.90;99.90
21787;DHT22;11055;50.870;4.316;2023-10-31T02:15:43;10.90;99.90
21787;DHT22;11055;50.870;4.316;2023-10-31T02:18:09;10.90;99.90
21787;DHT22;11055;50.870;4.316;2023-10-31T02:20:36;10.90;99.90
21787;DHT22;11055;50.870;4.316;2023-10-31T02:23:02;10.90;99.90
21787;DHT22;11055;50.870;4.316;2023-10-31T02:25:28;10.80;99.90
21787;DHT22;11055;50.870;4.316;2023-10-31T02:27:54;10.80;99.90
21787;DHT22;11055;50.870;4.316;2023-10-31T02:30:20;10.80;99.90
21787;DHT22;11055;50.870;4.316;2023-10-31T02:32:46;10.90;99.90
21787;DHT22;11055;50.870;4.316;2023-10-31T02:35:13;10.90;99.90
21787;DHT22;11055;50.870;4.316;2023-10-31T02:37:39;10.90;99.90
21787;DHT22;11055;50.870;4.316;2023-10-31T02:40:05;10.80;99.90
21787;DHT22;11055;50.870;4.316;2023-10-31T02:42:31;10.80;99.90
21787;DHT22;11055;50.870;4.316;2023-10-31T02:44:57;10.80;99.90
21787;DHT22;11055;50.870;4.316;2023-10-31T02:47:23;10.70;99.90
21787;DHT22;11055;50.870;4.316;2023-10-31T02:49:49;10.70;99.90
21787;DHT22;11055;50.870;4.316;2023-10-31T02:52:14;10.70;99.90
21787;DHT22;11055;50.870;4.316;2023-10-31T02:54:40;10.70;99.90
21787;DHT22;11055;50.870;4.316;2023-10-31T02:57:05;10.60;99.90
21787;DHT22;11055;50.870;4.316;2023-10-31T02:59:31;10.70;99.90
21787;DHT22;11055;50.870;4.316;2023-10-31T03:01:57;10.70;99.90
21787;DHT22;11055;50.870;4.316;2023-10-31T03:04:23;10.80;99.90
21787;DHT22;11055;50.870;4.316;2023-10-31T03:06:49;10.70;99.90
21787;DHT22;11055;50.870;4.316;2023-10-31T03:09:15;10.70;99.90
21787;DHT22;11055;50.870;4.316;2023-10-31T03:11:41;10.70;99.90
21787;DHT22;11055;50.870;4.316;2023-10-31T03:14:06;10.70;99.90
21787;DHT22;11055;50.870;4.316;2023-10-31T03:16:32;10.70;99.90
21787;DHT22;11055;50.870;4.316;2023-10-31T03:18:58;10.60;99.90
21787;DHT22;11055;50.870;4.316;2023-10-31T03:21:25;10.60;99.90
21787;DHT22;11055;50.870;4.316;2023-10-31T03:23:51;10.70;99.90
21787;DHT22;11055;50.870;4.316;2023-10-31T03:26:21;10.60;99.90
21787;DHT22;11055;50.870;4.316;2023-10-31T03:28:47;10.50;99.90
21787;DHT22;11055;50.870;4.316;2023-10-31T03:31:13;10.50;99.90
21787;DHT22;11055;50.870;4.316;2023-10-31T03:33:40;10.40;99.90
21787;DHT22;11055;50.870;4.316;2023-10-31T03:36:06;10.40;99.90
21787;DHT22;11055;50.870;4.316;2023-10-31T03:38:32;10.50;99.90
21787;DHT22;11055;50.870;4.316;2023-10-31T03:40:57;10.50;99.90
21787;DHT22;11055;50.870;4.316;2023-10-31T03:43:23;10.50;99.90
21787;DHT22;11055;50.870;4.316;2023-10-31T03:45:49;10.50;99.90
21787;DHT22;11055;50.870;4.316;2023-10-31T03:48:15;10.50;99.90
21787;DHT22;11055;50.870;4.316;2023-10-31T03:50:42;10.30;99.90
21787;DHT22;11055;50.870;4.316;2023-10-31T03:53:07;10.20;99.90
21787;DHT22;11055;50.870;4.316;2023-10-31T03:55:33;10.30;99.90
21787;DHT22;11055;50.870;4.316;2023-10-31T03:57:59;10.30;99.90
21787;DHT22;11055;50.870;4.316;2023-10-31T04:00:25;10.20;99.90
21787;DHT22;11055;50.870;4.316;2023-10-31T04:02:50;10.20;99.90
21787;DHT22;11055;50.870;4.316;2023-10-31T04:05:16;10.30;99.90
21787;DHT22;11055;50.870;4.316;2023-10-31T04:07:42;10.50;99.90
21787;DHT22;11055;50.870;4.316;2023-10-31T04:10:09;10.50;99.90
21787;DHT22;11055;50.870;4.316;2023-10-31T04:12:35;10.40;99.90
21787;DHT22;11055;50.870;4.316;2023-10-31T04:15:01;10.40;99.90
21787;DHT22;11055;50.870;4.316;2023-10-31T04:17:27;10.40;99.90
21787;DHT22;11055;50.870;4.316;2023-10-31T04:19:52;10.30;99.90
21787;DHT22;11055;50.870;4.316;2023-10-31T04:22:18;10.30;99.90
21787;DHT22;11055;50.870;4.316;2023-10-31T04:24:44;10.30;99.90
21787;DHT22;11055;50.870;4.316;2023-10-31T04:27:09;10.20;99.90
21787;DHT22;11055;50.870;4.316;2023-10-31T04:29:35;10.20;99.90
21787;DHT22;11055;50.870;4.316;2023-10-31T04:32:01;10.30;99.90
21787;DHT22;11055;50.870;4.316;2023-10-31T04:34:26;10.30;99.90
21787;DHT22;11055;50.870;4.316;2023-10-31T04:36:52;10.30;99.90
21787;DHT22;11055;50.870;4.316;2023-10-31T04:39:17;10.40;99.90
21787;DHT22;11055;50.870;4.316;2023-10-31T04:41:43;10.40;99.90
21787;DHT22;11055;50.870;4.316;2023-10-31T04:44:09;10.40;99.90
21787;DHT22;11055;50.870;4.316;2023-10-31T04:46:34;10.40;99.90
21787;DHT22;11055;50.870;4.316;2023-10-31T04:49:00;10.40;99.90
21787;DHT22;11055;50.870;4.316;2023-10-31T04:51:26;10.40;99.90
21787;DHT22;11055;50.870;4.316;2023-10-31T04:53:51;10.40;99.90
21787;DHT22;11055;50.870;4.316;2023-10-31T04:56:17;10.30;99.90
21787;DHT22;11055;50.870;4.316;2023-10-31T04:58:43;10.30;99.90
21787;DHT22;11055;50.870;4.316;2023-10-31T05:01:11;10.30;99.90
21787;DHT22;11055;50.870;4.316;2023-10-31T05:03:37;10.30;99.90
21787;DHT22;11055;50.870;4.316;2023-10-31T05:06:03;10.40;99.90
21787;DHT22;11055;50.870;4.316;2023-10-31T05:08:30;10.30;99.90
21787;DHT22;11055;50.870;4.316;2023-10-31T05:10:57;10.30;99.90
21787;DHT22;11055;50.870;4.316;2023-10-31T05:13:23;10.30;99.90
21787;DHT22;11055;50.870;4.316;2023-10-31T05:15:48;10.30;99.90
21787;DHT22;11055;50.870;4.316;2023-10-31T05:18:14;10.40;99.90
21787;DHT22;11055;50.870;4.316;2023-10-31T05:20:40;10.30;99.90
21787;DHT22;11055;50.870;4.316;2023-10-31T05:23:06;10.30;99.90
21787;DHT22;11055;50.870;4.316;2023-10-31T05:25:32;10.30;99.90
21787;DHT22;11055;50.870;4.316;2023-10-31T05:27:58;10.40;99.90
21787;DHT22;11055;50.870;4.316;2023-10-31T05:30:24;10.40;99.90
21787;DHT22;11055;50.870;4.316;2023-10-31T05:32:51;10.50;99.90
21787;DHT22;11055;50.870;4.316;2023-10-31T05:35:17;10.50;99.90
21787;DHT22;11055;50.870;4.316;2023-10-31T05:37:42;10.50;99.90
21787;DHT22;11055;50.870;4.316;2023-10-31T05:40:09;10.50;99.90
21787;DHT22;11055;50.870;4.316;2023-10-31T05:42:35;10.50;99.90
21787;DHT22;11055;50.870;4.316;2023-10-31T05:45:00;10.40;99.90
21787;DHT22;11055;50.870;4.316;2023-10-31T05:47:26;10.50;99.90
21787;DHT22;11055;50.870;4.316;2023-10-31T05:49:53;10.50;99.90
21787;DHT22;11055;50.870;4.316;2023-10-31T05:52:18;10.60;99.90
21787;DHT22;11055;50.870;4.316;2023-10-31T05:54:44;10.60;99.90
21787;DHT22;11055;50.870;4.316;2023-10-31T05:57:10;10.70;99.90
21787;DHT22;11055;50.870;4.316;2023-10-31T05:59:35;10.80;99.90
21787;DHT22;11055;50.870;4.316;2023-10-31T06:02:01;10.90;99.90
21787;DHT22;11055;50.870;4.316;2023-10-31T06:04:27;10.90;99.90
21787;DHT22;11055;50.870;4.316;2023-10-31T06:06:52;11.10;99.90
21787;DHT22;11055;50.870;4.316;2023-10-31T06:09:18;11.20;99.90
21787;DHT22;11055;50.870;4.316;2023-10-31T06:11:44;11.20;99.90
21787;DHT22;11055;50.870;4.316;2023-10-31T06:14:10;11.20;99.90
21787;DHT22;11055;50.870;4.316;2023-10-31T06:16:43;11.30;99.90
21787;DHT22;11055;50.870;4.316;2023-10-31T06:19:09;11.20;99.90
21787;DHT22;11055;50.870;4.316;2023-10-31T06:21:35;11.30;99.90
21787;DHT22;11055;50.870;4.316;2023-10-31T06:24:02;11.50;99.90
21787;DHT22;11055;50.870;4.316;2023-10-31T06:26:28;11.40;99.90
21787;DHT22;11055;50.870;4.316;2023-10-31T06:28:54;11.30;99.90
21787;DHT22;11055;50.870;4.316;2023-10-31T06:31:19;11.20;99.90
21787;DHT22;11055;50.870;4.316;2023-10-31T06:33:45;11.10;99.90
21787;DHT22;11055;50.870;4.316;2023-10-31T06:36:11;11.10;99.90
21787;DHT22;11055;50.870;4.316;2023-10-31T06:38:37;11.00;99.90
21787;DHT22;11055;50.870;4.316;2023-10-31T06:41:03;11.00;99.90
21787;DHT22;11055;50.870;4.316;2023-10-31T06:43:28;11.10;99.90
21787;DHT22;11055;50.870;4.316;2023-10-31T06:45:55;11.00;99.90
21787;DHT22;11055;50.870;4.316;2023-10-31T06:48:20;10.90;99.90
21787;DHT22;11055;50.870;4.316;2023-10-31T06:50:46;10.90;99.90
21787;DHT22;11055;50.870;4.316;2023-10-31T06:53:11;11.00;99.90
21787;DHT22;11055;50.870;4.316;2023-10-31T06:55:37;11.00;99.90
21787;DHT22;11055;50.870;4.316;2023-10-31T06:58:03;11.20;99.90
21787;DHT22;11055;50.870;4.316;2023-10-31T07:00:29;11.30;99.90
21787;DHT22;11055;50.870;4.316;2023-10-31T07:02:55;11.20;99.90
21787;DHT22;11055;50.870;4.316;2023-10-31T07:05:20;11.10;99.90
21787;DHT22;11055;50.870;4.316;2023-10-31T07:07:49;11.10;99.90
21787;DHT22;11055;50.870;4.316;2023-10-31T07:10:15;11.10;99.90
21787;DHT22;11055;50.870;4.316;2023-10-31T07:12:40;11.10;99.90
21787;DHT22;11055;50.870;4.316;2023-10-31T07:15:06;11.00;99.90
21787;DHT22;11055;50.870;4.316;2023-10-31T07:17:32;11.00;99.90
21787;DHT22;11055;50.870;4.316;2023-10-31T07:19:58;11.00;99.90
21787;DHT22;11055;50.870;4.316;2023-10-31T07:22:24;11.00;99.90
21787;DHT22;11055;50.870;4.316;2023-10-31T07:24:53;11.00;99.90
21787;DHT22;11055;50.870;4.316;2023-10-31T07:27:19;11.00;99.90
21787;DHT22;11055;50.870;4.316;2023-10-31T07:29:44;11.00;99.90
21787;DHT22;11055;50.870;4.316;2023-10-31T07:32:11;11.00;99.90
21787;DHT22;11055;50.870;4.316;2023-10-31T07:34:41;11.00;99.90
21787;DHT22;11055;50.870;4.316;2023-10-31T07:37:09;11.10;99.90
21787;DHT22;11055;50.870;4.316;2023-10-31T07:39:35;11.10;99.90
21787;DHT22;11055;50.870;4.316;2023-10-31T07:42:00;11.00;99.90
21787;DHT22;11055;50.870;4.316;2023-10-31T07:44:26;11.00;99.90
21787;DHT22;11055;50.870;4.316;2023-10-31T07:46:52;11.00;99.90
21787;DHT22;11055;50.870;4.316;2023-10-31T07:49:18;10.90;99.90
21787;DHT22;11055;50.870;4.316;2023-10-31T07:51:43;10.90;99.90
21787;DHT22;11055;50.870;4.316;2023-10-31T07:54:11;10.80;99.90
21787;DHT22;11055;50.870;4.316;2023-10-31T07:56:37;10.90;99.90
21787;DHT22;11055;50.870;4.316;2023-10-31T07:59:04;10.90;99.90
21787;DHT22;11055;50.870;4.316;2023-10-31T08:01:29;11.00;99.90
21787;DHT22;11055;50.870;4.316;2023-10-31T08:03:55;11.00;99.90
21787;DHT22;11055;50.870;4.316;2023-10-31T08:06:20;11.00;99.90
21787;DHT22;11055;50.870;4.316;2023-10-31T08:08:46;11.00;99.90
21787;DHT22;11055;50.870;4.316;2023-10-31T08:11:12;11.00;99.90
21787;DHT22;11055;50.870;4.316;2023-10-31T08:13:38;11.00;99.90
21787;DHT22;11055;50.870;4.316;2023-10-31T08:16:07;11.00;99.90
21787;DHT22;11055;50.870;4.316;2023-10-31T08:18:34;11.00;99.90
21787;DHT22;11055;50.870;4.316;2023-10-31T08:20:59;11.00;99.90
21787;DHT22;11055;50.870;4.316;2023-10-31T08:23:25;11.00;99.90
21787;DHT22;11055;50.870;4.316;2023-10-31T08:25:51;11.00;99.90
21787;DHT22;11055;50.870;4.316;2023-10-31T08:28:17;11.00;99.90
21787;DHT22;11055;50.870;4.316;2023-10-31T08:30:43;11.00;99.90
21787;DHT22;11055;50.870;4.316;2023-10-31T08:33:08;11.10;99.90
21787;DHT22;11055;50.870;4.316;2023-10-31T08:35:34;11.10;99.90
21787;DHT22;11055;50.870;4.316;2023-10-31T08:38:00;11.00;99.90
21787;DHT22;11055;50.870;4.316;2023-10-31T08:40:25;11.00;99.90
21787;DHT22;11055;50.870;4.316;2023-10-31T08:42:51;11.00;99.90
21787;DHT22;11055;50.870;4.316;2023-10-31T08:45:17;11.00;99.90
21787;DHT22;11055;50.870;4.316;2023-10-31T08:47:43;11.00;99.90
21787;DHT22;11055;50.870;4.316;2023-10-31T08:50:09;11.10;99.90
21787;DHT22;11055;50.870;4.316;2023-10-31T08:52:36;11.30;99.90
21787;DHT22;11055;50.870;4.316;2023-10-31T08:55:03;11.30;99.90
21787;DHT22;11055;50.870;4.316;2023-10-31T08:57:29;11.30;99.90
21787;DHT22;11055;50.870;4.316;2023-10-31T08:59:55;11.40;99.90
21787;DHT22;11055;50.870;4.316;2023-10-31T09:02:20;11.50;99.90
21787;DHT22;11055;50.870;4.316;2023-10-31T09:04:46;11.60;99.90
21787;DHT22;11055;50.870;4.316;2023-10-31T09:07:12;11.70;99.90
21787;DHT22;11055;50.870;4.316;2023-10-31T09:09:37;11.70;99.90
21787;DHT22;11055;50.870;4.316;2023-10-31T09:12:03;11.70;99.90
21787;DHT22;11055;50.870;4.316;2023-10-31T09:14:29;11.70;99.90
21787;DHT22;11055;50.870;4.316;2023-10-31T09:16:55;11.70;99.90
21787;DHT22;11055;50.870;4.316;2023-10-31T09:19:20;11.80;99.90
21787;DHT22;11055;50.870;4.316;2023-10-31T09:21:46;11.90;99.90
21787;DHT22;11055;50.870;4.316;2023-10-31T09:24:12;12.10;99.90
21787;DHT22;11055;50.870;4.316;2023-10-31T09:26:42;12.10;99.90
21787;DHT22;11055;50.870;4.316;2023-10-31T09:29:09;12.10;99.90
21787;DHT22;11055;50.870;4.316;2023-10-31T09:31:35;12.10;99.90
21787;DHT22;11055;50.870;4.316;2023-10-31T09:34:01;12.00;99.90
21787;DHT22;11055;50.870;4.316;2023-10-31T09:36:31;12.00;99.90
21787;DHT22;11055;50.870;4.316;2023-10-31T09:38:57;12.00;99.90
21787;DHT22;11055;50.870;4.316;2023-10-31T09:41:23;12.00;99.90
21787;DHT22;11055;50.870;4.316;2023-10-31T09:43:49;12.10;99.90
21787;DHT22;11055;50.870;4.316;2023-10-31T09:46:16;12.10;99.90
21787;DHT22;11055;50.870;4.316;2023-10-31T09:48:43;12.00;99.90
21787;DHT22;11055;50.870;4.316;2023-10-31T09:51:09;11.90;99.90
21787;DHT22;11055;50.870;4.316;2023-10-31T09:53:37;11.90;99.90
21787;DHT22;11055;50.870;4.316;2023-10-31T09:56:04;11.90;99.90
21787;DHT22;11055;50.870;4.316;2023-10-31T09:58:31;11.90;99.90
21787;DHT22;11055;50.870;4.316;2023-10-31T10:00:57;11.90;99.90
21787;DHT22;11055;50.870;4.316;2023-10-31T10:03:23;11.90;99.90
21787;DHT22;11055;50.870;4.316;2023-10-31T10:05:49;12.00;99.90
21787;DHT22;11055;50.870;4.316;2023-10-31T10:08:15;12.20;99.90
21787;DHT22;11055;50.870;4.316;2023-10-31T10:10:44;12.20;99.90
21787;DHT22;11055;50.870;4.316;2023-10-31T10:13:10;12.10;99.90
21787;DHT22;11055;50.870;4.316;2023-10-31T10:15:44;12.20;99.90
21787;DHT22;11055;50.870;4.316;2023-10-31T10:18:10;12.10;99.90
21787;DHT22;11055;50.870;4.316;2023-10-31T10:20:35;12.20;99.90
21787;DHT22;11055;50.870;4.316;2023-10-31T10:23:04;12.30;99.90
21787;DHT22;11055;50.870;4.316;2023-10-31T10:25:30;12.40;99.90
21787;DHT22;11055;50.870;4.316;2023-10-31T10:27:56;12.20;99.90
21787;DHT22;11055;50.870;4.316;2023-10-31T10:30:22;12.10;99.90
21787;DHT22;11055;50.870;4.316;2023-10-31T10:32:49;12.10;99.90
21787;DHT22;11055;50.870;4.316;2023-10-31T10:35:16;11.80;99.90
21787;DHT22;11055;50.870;4.316;2023-10-31T10:37:43;11.80;99.90
21787;DHT22;11055;50.870;4.316;2023-10-31T10:40:11;11.90;99.90
21787;DHT22;11055;50.870;4.316;2023-10-31T10:42:44;12.00;99.90
21787;DHT22;11055;50.870;4.316;2023-10-31T10:45:13;12.10;99.90
21787;DHT22;11055;50.870;4.316;2023-10-31T10:47:39;12.10;99.90
21787;DHT22;11055;50.870;4.316;2023-10-31T10:50:06;12.10;99.90
21787;DHT22;11055;50.870;4.316;2023-10-31T10:52:44;12.20;99.90
21787;DHT22;11055;50.870;4.316;2023-10-31T10:55:16;12.20;99.90
21787;DHT22;11055;50.870;4.316;2023-10-31T10:58:08;12.10;99.90
21787;DHT22;11055;50.870;4.316;2023-10-31T11:00:34;12.10;99.90
21787;DHT22;11055;50.870;4.316;2023-10-31T11:03:01;12.10;99.90
21787;DHT22;11055;50.870;4.316;2023-10-31T11:05:27;12.00;99.90
21787;DHT22;11055;50.870;4.316;2023-10-31T11:07:54;12.10;99.90
21787;DHT22;11055;50.870;4.316;2023-10-31T11:10:23;12.20;99.90
21787;DHT22;11055;50.870;4.316;2023-10-31T11:12:48;12.20;99.90
21787;DHT22;11055;50.870;4.316;2023-10-31T11:15:17;12.10;99.90
21787;DHT22;11055;50.870;4.316;2023-10-31T11:17:45;12.00;99.90
21787;DHT22;11055;50.870;4.316;2023-10-31T11:20:13;12.10;99.90
21787;DHT22;11055;50.870;4.316;2023-10-31T11:22:43;12.10;99.90
21787;DHT22;11055;50.870;4.316;2023-10-31T11:25:14;12.10;99.90
21787;DHT22;11055;50.870;4.316;2023-10-31T11:27:40;12.00;99.90
21787;DHT22;11055;50.870;4.316;2023-10-31T11:30:08;12.00;99.90
21787;DHT22;11055;50.870;4.316;2023-10-31T11:32:51;12.10;99.90
21787;DHT22;11055;50.870;4.316;2023-10-31T11:35:17;12.30;99.90
21787;DHT22;11055;50.870;4.316;2023-10-31T11:37:43;12.10;99.90
21787;DHT22;11055;50.870;4.316;2023-10-31T11:40:19;12.10;99.90
21787;DHT22;11055;50.870;4.316;2023-10-31T11:42:51;12.20;99.90
21787;DHT22;11055;50.870;4.316;2023-10-31T11:45:45;12.10;99.90
21787;DHT22;11055;50.870;4.316;2023-10-31T11:48:13;12.10;99.90
21787;DHT22;11055;50.870;4.316;2023-10-31T11:50:39;12.10;99.90
21787;DHT22;11055;50.870;4.316;2023-10-31T11:53:09;12.10;99.90
21787;DHT22;11055;50.870;4.316;2023-10-31T11:55:41;12.20;99.90
21787;DHT22;11055;50.870;4.316;2023-10-31T11:58:24;12.30;99.90
21787;DHT22;11055;50.870;4.316;2023-10-31T12:01:02;12.20;99.90
21787;DHT22;11055;50.870;4.316;2023-10-31T12:03:38;12.30;99.90
21787;DHT22;11055;50.870;4.316;2023-10-31T12:06:05;12.40;99.90
21787;DHT22;11055;50.870;4.316;2023-10-31T12:08:36;12.30;99.90
21787;DHT22;11055;50.870;4.316;2023-10-31T12:11:10;12.20;99.90
21787;DHT22;11055;50.870;4.316;2023-10-31T12:13:38;12.20;99.90
21787;DHT22;11055;50.870;4.316;2023-10-31T12:16:09;12.40;99.90
21787;DHT22;11055;50.870;4.316;2023-10-31T12:18:37;12.50;99.90
21787;DHT22;11055;50.870;4.316;2023-10-31T12:21:04;12.70;99.90
21787;DHT22;11055;50.870;4.316;2023-10-31T12:23:32;12.60;99.90
21787;DHT22;11055;50.870;4.316;2023-10-31T12:25:58;12.60;99.90
21787;DHT22;11055;50.870;4.316;2023-10-31T12:28:25;12.50;99.90
21787;DHT22;11055;50.870;4.316;2023-10-31T12:30:52;12.50;99.90
21787;DHT22;11055;50.870;4.316;2023-10-31T12:33:22;12.60;99.90
21787;DHT22;11055;50.870;4.316;2023-10-31T12:36:00;12.60;99.90
21787;DHT22;11055;50.870;4.316;2023-10-31T12:38:26;12.50;99.90
21787;DHT22;11055;50.870;4.316;2023-10-31T12:40:53;12.50;99.90
21787;DHT22;11055;50.870;4.316;2023-10-31T12:43:19;12.50;99.90
21787;DHT22;11055;50.870;4.316;2023-10-31T12:45:44;12.50;99.90
21787;DHT22;11055;50.870;4.316;2023-10-31T12:48:10;12.40;99.90
21787;DHT22;11055;50.870;4.316;2023-10-31T12:50:38;12.50;99.90
21787;DHT22;11055;50.870;4.316;2023-10-31T12:53:08;12.70;99.90
21787;DHT22;11055;50.870;4.316;2023-10-31T12:55:41;12.40;99.90
21787;DHT22;11055;50.870;4.316;2023-10-31T12:58:07;12.50;99.90
21787;DHT22;11055;50.870;4.316;2023-10-31T13:00:36;12.50;99.90
21787;DHT22;11055;50.870;4.316;2023-10-31T13:03:07;12.50;99.90
21787;DHT22;11055;50.870;4.316;2023-10-31T13:05:37;12.60;99.90
21787;DHT22;11055;50.870;4.316;2023-10-31T13:08:13;12.40;99.90
21787;DHT22;11055;50.870;4.316;2023-10-31T13:10:39;12.40;99.90
21787;DHT22;11055;50.870;4.316;2023-10-31T13:13:05;12.50;99.90
21787;DHT22;11055;50.870;4.316;2023-10-31T13:15:30;12.40;99.90
21787;DHT22;11055;50.870;4.316;2023-10-31T13:17:56;12.40;99.90
21787;DHT22;11055;50.870;4.316;2023-10-31T13:20:22;12.30;99.90
21787;DHT22;11055;50.870;4.316;2023-10-31T13:22:49;12.30;99.90
21787;DHT22;11055;50.870;4.316;2023-10-31T13:25:15;12.20;99.90
21787;DHT22;11055;50.870;4.316;2023-10-31T13:27:44;12.20;99.90
21787;DHT22;11055;50.870;4.316;2023-10-31T13:30:12;12.20;99.90
21787;DHT22;11055;50.870;4.316;2023-10-31T13:32:40;12.20;99.90
21787;DHT22;11055;50.870;4.316;2023-10-31T13:35:07;12.30;99.90
21787;DHT22;11055;50.870;4.316;2023-10-31T13:37:36;12.40;99.90
21787;DHT22;11055;50.870;4.316;2023-10-31T13:40:03;12.40;99.90
21787;DHT22;11055;50.870;4.316;2023-10-31T13:42:29;12.40;99.90
21787;DHT22;11055;50.870;4.316;2023-10-31T13:44:55;12.40;99.90
21787;DHT22;11055;50.870;4.316;2023-10-31T13:47:21;12.50;99.90
21787;DHT22;11055;50.870;4.316;2023-10-31T13:49:46;12.50;99.90
21787;DHT22;11055;50.870;4.316;2023-10-31T13:52:12;12.60;99.90
21787;DHT22;11055;50.870;4.316;2023-10-31T13:54:38;12.70;99.90
21787;DHT22;11055;50.870;4.316;2023-10-31T13:57:04;13.20;99.90
21787;DHT22;11055;50.870;4.316;2023-10-31T13:59:29;13.70;99.90
21787;DHT22;11055;50.870;4.316;2023-10-31T14:01:55;13.90;99.90
21787;DHT22;11055;50.870;4.316;2023-10-31T14:04:21;14.00;99.90
21787;DHT22;11055;50.870;4.316;2023-10-31T14:06:47;14.10;99.90
21787;DHT22;11055;50.870;4.316;2023-10-31T14:09:13;14.00;99.90
21787;DHT22;11055;50.870;4.316;2023-10-31T14:11:40;13.80;99.90
21787;DHT22;11055;50.870;4.316;2023-10-31T14:14:06;13.40;99.90
21787;DHT22;11055;50.870;4.316;2023-10-31T14:16:33;13.30;99.90
21787;DHT22;11055;50.870;4.316;2023-10-31T14:18:59;13.30;99.90
21787;DHT22;11055;50.870;4.316;2023-10-31T14:21:25;13.30;99.90
21787;DHT22;11055;50.870;4.316;2023-10-31T14:23:51;13.30;99.90
21787;DHT22;11055;50.870;4.316;2023-10-31T14:26:23;13.20;99.90
21787;DHT22;11055;50.870;4.316;2023-10-31T14:28:49;13.40;99.90
21787;DHT22;11055;50.870;4.316;2023-10-31T14:31:16;13.50;99.90
21787;DHT22;11055;50.870;4.316;2023-10-31T14:33:42;13.40;99.90
21787;DHT22;11055;50.870;4.316;2023-10-31T14:36:09;13.50;99.90
21787;DHT22;11055;50.870;4.316;2023-10-31T14:38:37;13.50;99.90
21787;DHT22;11055;50.870;4.316;2023-10-31T14:41:03;13.50;99.90
21787;DHT22;11055;50.870;4.316;2023-10-31T14:43:29;13.60;99.90
21787;DHT22;11055;50.870;4.316;2023-10-31T14:45:56;13.60;99.90
21787;DHT22;11055;50.870;4.316;2023-10-31T14:48:22;13.40;99.90
21787;DHT22;11055;50.870;4.316;2023-10-31T14:50:48;13.20;99.90
21787;DHT22;11055;50.870;4.316;2023-10-31T14:53:17;13.20;99.90
21787;DHT22;11055;50.870;4.316;2023-10-31T14:55:44;13.20;99.90
21787;DHT22;11055;50.870;4.316;2023-10-31T14:58:10;13.10;99.90
21787;DHT22;11055;50.870;4.316;2023-10-31T15:00:36;13.20;99.90
21787;DHT22;11055;50.870;4.316;2023-10-31T15:03:03;13.20;99.90
21787;DHT22;11055;50.870;4.316;2023-10-31T15:05:29;13.30;99.90
21787;DHT22;11055;50.870;4.316;2023-10-31T15:07:55;13.40;99.90
21787;DHT22;11055;50.870;4.316;2023-10-31T15:10:21;13.40;99.90
21787;DHT22;11055;50.870;4.316;2023-10-31T15:12:47;13.50;99.90
21787;DHT22;11055;50.870;4.316;2023-10-31T15:15:15;13.30;99.90
21787;DHT22;11055;50.870;4.316;2023-10-31T15:17:40;13.30;99.90
21787;DHT22;11055;50.870;4.316;2023-10-31T15:20:07;13.20;99.90
21787;DHT22;11055;50.870;4.316;2023-10-31T15:22:35;13.20;99.90
21787;DHT22;11055;50.870;4.316;2023-10-31T15:25:01;13.30;99.90
21787;DHT22;11055;50.870;4.316;2023-10-31T15:27:27;13.30;99.90